Time;durP1;ratioP1;P1;durP2;ratioP2;P2;SDS_P1;SDS_P2;PMS_P1;PMS_P2;Temp;Humidity;BMP_temperature;BMP_pressure;BME280_temperature;BME280_humidity;BME280_pressure;Samples;Min_cycle;Max_cycle;Signal;HPM_P1;HPM_P2
2021/01/09 00:00:13;;;;;;;9.50;5.77;;;1.40;99.90;;;;;;5058775;28;20424;-76
2021/01/09 00:02:40;;;;;;;11.50;7.17;;;1.40;99.90;;;;;;5057859;28;20527;-76
2021/01/09 00:05:06;;;;;;;11.43;7.27;;;1.40;99.90;;;;;;5058903;28;20430;-75
2021/01/09 00:07:32;;;;;;;13.03;7.13;;;1.40;99.90;;;;;;5055734;28;20470;-75
2021/01/09 00:10:03;;;;;;;11.67;7.40;;;1.30;99.90;;;;;;5060528;28;20440;-75
2021/01/09 00:12:29;;;;;;;11.13;6.90;;;1.30;99.90;;;;;;5059390;28;20462;-77
2021/01/09 00:14:55;;;;;;;10.27;6.63;;;1.30;99.90;;;;;;5059402;28;20500;-77
2021/01/09 00:17:20;;;;;;;11.97;7.27;;;1.40;99.90;;;;;;5057699;28;20228;-77
2021/01/09 00:19:46;;;;;;;13.50;7.67;;;1.40;99.90;;;;;;5045185;28;21157;-79
2021/01/09 00:22:13;;;;;;;10.60;6.13;;;1.40;99.90;;;;;;5067744;28;20513;-79
2021/01/09 00:24:39;;;;;;;10.47;7.37;;;1.40;99.90;;;;;;5061295;28;20193;-78
2021/01/09 00:27:12;;;;;;;9.70;6.53;;;1.40;99.90;;;;;;5039877;28;20459;-76
2021/01/09 00:29:43;;;;;;;13.40;7.90;;;1.40;99.90;;;;;;5057266;28;20666;-75
2021/01/09 00:32:09;;;;;;;12.57;7.00;;;1.40;99.90;;;;;;5059126;28;20529;-76
2021/01/09 00:34:35;;;;;;;10.90;6.93;;;1.40;99.90;;;;;;5059381;28;20522;-75
2021/01/09 00:37:01;;;;;;;21.83;8.03;;;1.40;99.90;;;;;;5049002;28;20436;-75
2021/01/09 00:39:28;;;;;;;11.90;6.80;;;1.30;99.90;;;;;;5058223;28;20192;-75
2021/01/09 00:41:54;;;;;;;14.80;8.10;;;1.40;99.90;;;;;;5042394;28;20188;-75
2021/01/09 00:44:20;;;;;;;12.80;7.00;;;1.30;99.90;;;;;;5057911;28;21249;-75
2021/01/09 00:46:46;;;;;;;14.70;7.90;;;1.40;99.90;;;;;;5056290;28;20553;-75
2021/01/09 00:49:12;;;;;;;8.47;6.10;;;1.30;99.90;;;;;;5046691;28;20274;-76
2021/01/09 00:51:37;;;;;;;12.67;6.60;;;1.40;99.90;;;;;;5059751;28;20190;-76
2021/01/09 00:54:03;;;;;;;12.83;8.60;;;1.40;99.90;;;;;;5060252;28;20437;-75
2021/01/09 00:56:29;;;;;;;11.40;7.43;;;1.40;99.90;;;;;;5041805;28;20192;-75
2021/01/09 00:58:55;;;;;;;10.57;7.47;;;1.40;99.90;;;;;;5060082;28;20447;-75
2021/01/09 01:01:20;;;;;;;13.40;7.73;;;1.40;99.90;;;;;;5062531;28;20190;-76
2021/01/09 01:03:46;;;;;;;13.50;8.23;;;1.40;99.90;;;;;;5030512;28;20687;-75
2021/01/09 01:06:12;;;;;;;14.90;7.13;;;1.40;99.90;;;;;;5060210;28;20176;-76
2021/01/09 01:08:38;;;;;;;14.37;8.00;;;1.40;99.90;;;;;;5050025;28;20438;-75
2021/01/09 01:11:09;;;;;;;14.00;7.50;;;1.40;99.90;;;;;;5061018;28;20176;-75
2021/01/09 01:13:35;;;;;;;13.27;8.13;;;1.40;99.90;;;;;;5062417;28;20850;-76
2021/01/09 01:16:00;;;;;;;14.10;7.03;;;1.40;99.90;;;;;;5058197;28;20529;-81
2021/01/09 01:18:26;;;;;;;11.47;6.73;;;1.40;99.90;;;;;;5063540;28;20194;-76
2021/01/09 01:20:52;;;;;;;16.27;8.30;;;1.40;99.90;;;;;;5062480;28;20168;-76
2021/01/09 01:23:18;;;;;;;14.83;8.43;;;1.40;99.90;;;;;;5064706;28;20176;-77
2021/01/09 01:25:45;;;;;;;11.47;7.17;;;1.40;99.90;;;;;;5063835;28;20515;-76
2021/01/09 01:28:11;;;;;;;10.33;7.10;;;1.30;99.90;;;;;;5062076;28;20491;-76
2021/01/09 01:30:37;;;;;;;12.27;8.40;;;1.40;99.90;;;;;;5062879;28;20436;-76
2021/01/09 01:33:03;;;;;;;12.67;7.33;;;1.30;99.90;;;;;;5062482;28;20174;-76
2021/01/09 01:35:29;;;;;;;15.60;8.37;;;1.30;99.90;;;;;;5061740;28;20321;-76
2021/01/09 01:37:55;;;;;;;10.90;7.40;;;1.40;99.90;;;;;;5061128;28;20509;-75
2021/01/09 01:40:24;;;;;;;13.70;8.30;;;1.40;99.90;;;;;;5064680;28;20222;-76
2021/01/09 01:42:50;;;;;;;16.83;8.80;;;1.40;99.90;;;;;;5062218;28;20321;-76
2021/01/09 01:45:16;;;;;;;16.50;9.50;;;1.40;99.90;;;;;;5061897;28;20429;-75
2021/01/09 01:47:43;;;;;;;12.73;6.87;;;1.40;99.90;;;;;;5060172;28;20522;-75
2021/01/09 01:50:10;;;;;;;14.10;8.43;;;1.40;99.90;;;;;;5061481;28;20214;-76
2021/01/09 01:52:35;;;;;;;15.70;8.30;;;1.40;99.90;;;;;;5062615;28;20424;-76
2021/01/09 01:55:02;;;;;;;12.60;7.27;;;1.40;99.90;;;;;;5063917;28;20594;-75
2021/01/09 01:57:28;;;;;;;13.07;8.50;;;1.30;99.90;;;;;;5060008;28;20185;-76
2021/01/09 01:59:54;;;;;;;13.90;8.20;;;1.30;99.90;;;;;;5046210;28;20960;-75
2021/01/09 02:02:20;;;;;;;15.10;8.50;;;1.30;99.90;;;;;;5061487;28;20441;-75
2021/01/09 02:04:59;;;;;;;13.30;8.40;;;1.30;99.90;;;;;;5059977;28;20209;-75
2021/01/09 02:07:30;;;;;;;15.07;7.97;;;1.30;99.90;;;;;;5059481;28;20966;-76
2021/01/09 02:09:57;;;;;;;16.93;10.00;;;1.30;99.90;;;;;;5060160;28;20434;-76
2021/01/09 02:12:43;;;;;;;16.77;8.90;;;1.40;99.90;;;;;;5060868;28;20424;-76
2021/01/09 02:15:11;;;;;;;16.10;9.13;;;1.30;99.90;;;;;;5063050;28;20426;-75
2021/01/09 02:17:39;;;;;;;15.60;9.07;;;1.30;99.90;;;;;;5045872;28;20521;-76
2021/01/09 02:20:06;;;;;;;14.40;8.50;;;1.30;99.90;;;;;;5062421;28;20437;-76
2021/01/09 02:22:44;;;;;;;15.40;9.90;;;1.40;99.90;;;;;;5062233;28;20465;-75
2021/01/09 02:25:13;;;;;;;15.53;8.53;;;1.40;99.90;;;;;;5063156;28;20521;-75
2021/01/09 02:27:39;;;;;;;13.00;7.40;;;1.30;99.90;;;;;;5062386;28;20797;-75
2021/01/09 02:30:27;;;;;;;13.37;8.50;;;1.40;99.90;;;;;;5062746;28;20426;-75
2021/01/09 02:33:01;;;;;;;12.73;7.60;;;1.40;99.90;;;;;;5061839;28;20926;-77
2021/01/09 02:35:28;;;;;;;14.70;8.53;;;1.40;99.90;;;;;;5063474;28;20427;-78
2021/01/09 02:37:54;;;;;;;13.13;8.10;;;1.30;99.90;;;;;;5062106;28;20926;-77
2021/01/09 02:40:21;;;;;;;16.37;7.63;;;1.30;99.90;;;;;;5061799;28;20449;-77
2021/01/09 02:42:47;;;;;;;17.07;9.00;;;1.30;99.90;;;;;;5062640;28;20449;-76
2021/01/09 02:45:14;;;;;;;16.97;9.10;;;1.30;99.90;;;;;;5063288;28;20526;-76
2021/01/09 02:47:40;;;;;;;19.50;10.53;;;1.30;99.90;;;;;;5061796;28;20996;-76
2021/01/09 02:50:10;;;;;;;15.70;9.33;;;1.30;99.90;;;;;;5062293;28;20770;-76
2021/01/09 02:52:39;;;;;;;16.37;9.30;;;1.30;99.90;;;;;;5061518;28;20534;-76
2021/01/09 02:55:06;;;;;;;19.10;9.77;;;1.30;99.90;;;;;;5060886;28;20492;-76
2021/01/09 02:57:32;;;;;;;16.33;9.13;;;1.30;99.90;;;;;;5060000;28;20431;-77
2021/01/09 02:59:58;;;;;;;16.00;9.53;;;1.30;99.90;;;;;;5056159;28;20924;-76
2021/01/09 03:02:24;;;;;;;16.40;9.40;;;1.30;99.90;;;;;;5060595;28;20169;-76
2021/01/09 03:04:49;;;;;;;17.07;8.87;;;1.30;99.90;;;;;;5063248;28;20450;-76
2021/01/09 03:07:15;;;;;;;17.23;8.90;;;1.30;99.90;;;;;;5059938;28;20197;-76
2021/01/09 03:09:41;;;;;;;20.73;10.37;;;1.30;99.90;;;;;;5061400;28;20196;-75
2021/01/09 03:12:07;;;;;;;14.60;8.63;;;1.30;99.90;;;;;;5060437;28;20184;-75
2021/01/09 03:14:33;;;;;;;15.77;8.37;;;1.30;99.90;;;;;;5060971;28;20184;-76
2021/01/09 03:16:59;;;;;;;19.37;10.37;;;1.30;99.90;;;;;;5060681;28;20430;-76
2021/01/09 03:19:25;;;;;;;22.00;9.83;;;1.30;99.90;;;;;;5060797;28;20458;-76
2021/01/09 03:21:51;;;;;;;18.13;9.77;;;1.30;99.90;;;;;;5061454;28;20951;-76
2021/01/09 03:24:17;;;;;;;19.33;10.37;;;1.30;99.90;;;;;;5063266;28;20172;-76
2021/01/09 03:26:42;;;;;;;19.27;10.80;;;1.30;99.90;;;;;;5063853;28;20210;-77
2021/01/09 03:29:08;;;;;;;20.00;9.17;;;1.30;99.90;;;;;;5059532;28;20245;-77
2021/01/09 03:31:34;;;;;;;19.07;10.23;;;1.20;99.90;;;;;;5058763;28;20636;-76
2021/01/09 03:34:00;;;;;;;19.67;10.30;;;1.30;99.90;;;;;;5057415;28;20450;-76
2021/01/09 03:36:26;;;;;;;19.30;8.97;;;1.20;99.90;;;;;;5059516;28;20186;-75
2021/01/09 03:38:52;;;;;;;18.40;9.97;;;1.20;99.90;;;;;;5040795;28;20183;-76
2021/01/09 03:41:17;;;;;;;20.93;9.87;;;1.30;99.90;;;;;;5060447;28;20462;-76
2021/01/09 03:43:43;;;;;;;17.03;8.83;;;1.30;99.90;;;;;;5058692;28;20430;-75
2021/01/09 03:46:09;;;;;;;23.07;10.93;;;1.30;99.90;;;;;;5060211;28;20566;-75
2021/01/09 03:48:35;;;;;;;26.17;9.43;;;1.30;99.90;;;;;;5057285;28;20204;-75
2021/01/09 03:51:00;;;;;;;19.73;10.50;;;1.30;99.90;;;;;;5060941;28;20183;-75
2021/01/09 03:53:26;;;;;;;25.60;11.20;;;1.30;99.90;;;;;;5061790;28;20423;-76
2021/01/09 03:55:52;;;;;;;18.83;9.60;;;1.30;99.90;;;;;;5044277;28;20222;-75
2021/01/09 03:58:17;;;;;;;16.00;8.40;;;1.30;99.90;;;;;;5059272;28;20179;-76
2021/01/09 04:00:43;;;;;;;15.90;8.30;;;1.30;99.90;;;;;;5060671;28;20233;-75
2021/01/09 04:03:09;;;;;;;14.20;7.83;;;1.30;99.90;;;;;;5049508;28;20250;-75
2021/01/09 04:05:35;;;;;;;15.70;7.60;;;1.30;99.90;;;;;;5058817;28;20432;-76
2021/01/09 04:08:01;;;;;;;15.27;8.93;;;1.30;99.90;;;;;;5056359;28;20800;-75
2021/01/09 04:10:26;;;;;;;13.80;7.80;;;1.30;99.90;;;;;;5057873;28;20178;-75
2021/01/09 04:12:52;;;;;;;13.40;7.10;;;1.30;99.90;;;;;;5058519;28;20243;-75
2021/01/09 04:15:18;;;;;;;13.20;7.90;;;1.30;99.90;;;;;;5056307;28;20181;-75
2021/01/09 04:17:43;;;;;;;9.97;6.10;;;1.30;99.90;;;;;;5058543;28;20186;-77
2021/01/09 04:20:10;;;;;;;12.03;6.60;;;1.30;99.90;;;;;;5060932;28;20202;-77
2021/01/09 04:22:36;;;;;;;12.60;6.50;;;1.30;99.90;;;;;;5059310;28;20209;-75
2021/01/09 04:25:02;;;;;;;12.43;7.20;;;1.30;99.90;;;;;;5059549;28;20588;-76
2021/01/09 04:27:28;;;;;;;8.50;5.70;;;1.30;99.90;;;;;;5056734;28;20552;-76
2021/01/09 04:29:53;;;;;;;9.63;6.30;;;1.30;99.90;;;;;;5060288;28;20519;-76
2021/01/09 04:32:19;;;;;;;13.73;7.60;;;1.30;99.90;;;;;;5058841;28;20178;-76
2021/01/09 04:34:47;;;;;;;11.00;5.47;;;1.40;99.90;;;;;;5058260;28;20266;-76
2021/01/09 04:37:13;;;;;;;9.97;5.60;;;1.40;99.90;;;;;;5058859;28;20205;-75
2021/01/09 04:39:39;;;;;;;9.73;6.23;;;1.40;99.90;;;;;;5059015;28;20441;-76
2021/01/09 04:42:06;;;;;;;11.97;7.33;;;1.40;99.90;;;;;;5057023;28;20893;-75
2021/01/09 04:44:32;;;;;;;11.03;6.90;;;1.40;99.90;;;;;;5059822;28;20937;-76
2021/01/09 04:47:01;;;;;;;14.10;6.93;;;1.40;99.90;;;;;;5058640;28;20457;-75
2021/01/09 04:49:28;;;;;;;11.90;7.57;;;1.40;99.90;;;;;;5058046;28;20655;-75
2021/01/09 04:51:55;;;;;;;8.67;5.77;;;1.40;99.90;;;;;;5058939;28;20912;-76
2021/01/09 04:54:25;;;;;;;12.40;7.00;;;1.40;99.90;;;;;;5059939;28;20430;-76
2021/01/09 04:56:55;;;;;;;10.90;6.80;;;1.40;99.90;;;;;;5055458;28;20482;-75
2021/01/09 04:59:23;;;;;;;12.30;6.40;;;1.30;99.90;;;;;;5059505;28;20752;-76
2021/01/09 05:01:51;;;;;;;14.03;8.00;;;1.40;99.90;;;;;;5057661;28;20434;-76
2021/01/09 05:04:18;;;;;;;12.03;6.33;;;1.40;99.90;;;;;;5059564;28;20429;-75
2021/01/09 05:06:46;;;;;;;10.93;7.00;;;1.40;99.90;;;;;;5046349;28;20456;-76
2021/01/09 05:09:14;;;;;;;14.23;7.87;;;1.40;99.90;;;;;;5060260;28;20830;-76
2021/01/09 05:11:42;;;;;;;17.67;8.13;;;1.40;99.90;;;;;;5057427;28;20438;-75
2021/01/09 05:14:09;;;;;;;13.23;8.30;;;1.30;99.90;;;;;;5059567;28;20426;-75
2021/01/09 05:16:36;;;;;;;14.03;7.27;;;1.30;99.90;;;;;;5042055;28;20442;-76
2021/01/09 05:19:03;;;;;;;14.70;8.10;;;1.30;99.90;;;;;;5057817;28;20770;-75
2021/01/09 05:21:30;;;;;;;12.37;7.37;;;1.40;99.90;;;;;;5057906;28;20442;-75
2021/01/09 05:24:02;;;;;;;17.67;8.00;;;1.40;99.90;;;;;;5041741;28;20456;-76
2021/01/09 05:26:28;;;;;;;13.57;7.77;;;1.40;99.90;;;;;;5056009;28;20529;-74
2021/01/09 05:28:57;;;;;;;16.80;9.23;;;1.40;99.90;;;;;;5046261;28;20846;-75
2021/01/09 05:31:24;;;;;;;18.63;9.33;;;1.30;99.90;;;;;;5058321;28;20478;-76
2021/01/09 05:33:51;;;;;;;21.47;9.83;;;1.30;99.90;;;;;;5055565;28;20464;-75
2021/01/09 05:36:18;;;;;;;15.43;8.50;;;1.40;99.90;;;;;;5056401;28;20434;-76
2021/01/09 05:38:46;;;;;;;16.83;9.87;;;1.40;99.90;;;;;;5040963;28;20442;-76
2021/01/09 05:41:14;;;;;;;19.67;9.37;;;1.40;99.90;;;;;;5059443;28;20429;-76
2021/01/09 05:43:40;;;;;;;17.53;9.20;;;1.40;99.90;;;;;;5058421;28;20430;-76
2021/01/09 05:46:07;;;;;;;16.20;9.17;;;1.40;99.90;;;;;;5063823;28;20437;-76
2021/01/09 05:48:34;;;;;;;17.63;9.17;;;1.40;99.90;;;;;;5056930;28;20467;-76
2021/01/09 05:51:06;;;;;;;18.97;8.93;;;1.40;99.90;;;;;;5062503;28;20448;-76
2021/01/09 05:53:40;;;;;;;14.87;7.77;;;1.30;99.90;;;;;;5051460;28;20435;-75
2021/01/09 05:56:06;;;;;;;18.70;9.63;;;1.40;99.90;;;;;;5062277;28;20440;-75
2021/01/09 05:58:33;;;;;;;16.90;8.60;;;1.30;99.90;;;;;;5061367;28;20438;-76
2021/01/09 06:01:05;;;;;;;14.97;7.87;;;1.30;99.90;;;;;;5061201;28;20434;-76
2021/01/09 06:03:45;;;;;;;26.00;10.50;;;1.30;99.90;;;;;;5044331;28;20516;-76
2021/01/09 06:06:38;;;;;;;13.40;9.00;;;1.30;99.90;;;;;;5061313;28;20441;-75
2021/01/09 06:09:07;;;;;;;11.03;6.90;;;1.30;99.90;;;;;;5051273;28;20441;-75
2021/01/09 06:11:42;;;;;;;11.40;6.70;;;1.30;99.90;;;;;;5051767;28;20470;-75
2021/01/09 06:14:11;;;;;;;13.77;7.67;;;1.30;99.90;;;;;;5045298;28;20430;-76
2021/01/09 06:16:39;;;;;;;14.00;7.80;;;1.40;99.90;;;;;;5062930;28;20519;-75
2021/01/09 06:19:05;;;;;;;13.97;6.90;;;1.40;99.90;;;;;;5061110;28;20431;-75
2021/01/09 06:21:32;;;;;;;14.50;8.00;;;1.40;99.90;;;;;;5061585;28;20439;-76
2021/01/09 06:23:59;;;;;;;12.70;8.00;;;1.40;99.90;;;;;;5060542;28;20439;-75
2021/01/09 06:26:27;;;;;;;13.93;7.90;;;1.40;99.90;;;;;;5060920;28;20479;-76
2021/01/09 06:28:58;;;;;;;10.90;6.80;;;1.40;99.90;;;;;;5059060;28;20441;-76
2021/01/09 06:31:28;;;;;;;16.73;8.53;;;1.40;99.90;;;;;;5059819;28;21121;-75
2021/01/09 06:34:01;;;;;;;12.10;6.83;;;1.40;99.90;;;;;;5050403;28;20444;-76
2021/01/09 06:36:27;;;;;;;12.90;7.40;;;1.40;99.90;;;;;;5059583;28;20430;-75
2021/01/09 06:39:01;;;;;;;13.70;8.17;;;1.40;99.90;;;;;;5058656;28;20523;-76
2021/01/09 06:41:32;;;;;;;13.20;7.10;;;1.40;99.90;;;;;;5060814;28;20429;-75
2021/01/09 06:44:05;;;;;;;12.50;7.03;;;1.40;99.90;;;;;;5062165;28;20438;-76
2021/01/09 06:46:38;;;;;;;12.37;7.30;;;1.40;99.90;;;;;;5060846;28;20434;-76
2021/01/09 06:49:04;;;;;;;12.33;7.50;;;1.40;99.90;;;;;;5044529;28;20520;-76
2021/01/09 06:51:35;;;;;;;12.23;6.60;;;1.50;99.90;;;;;;5060468;28;20923;-76
2021/01/09 06:54:27;;;;;;;11.50;6.77;;;1.40;99.90;;;;;;5060982;28;20180;-76
2021/01/09 06:57:05;;;;;;;13.03;6.40;;;1.50;99.90;;;;;;5059436;28;20461;-75
2021/01/09 06:59:32;;;;;;;11.70;6.87;;;1.40;99.90;;;;;;5056982;28;20430;-75
2021/01/09 07:02:21;;;;;;;12.80;6.87;;;1.40;99.90;;;;;;5056791;28;20438;-75
2021/01/09 07:05:10;;;;;;;10.43;6.60;;;1.40;99.90;;;;;;5057867;28;20527;-76
2021/01/09 07:07:53;;;;;;;12.07;7.63;;;1.40;99.90;;;;;;5055774;28;20453;-76
2021/01/09 07:10:21;;;;;;;12.43;6.70;;;1.40;99.90;;;;;;5056970;28;21044;-75
2021/01/09 07:13:03;;;;;;;17.00;7.60;;;1.40;99.90;;;;;;5049362;28;20444;-76
2021/01/09 07:15:33;;;;;;;15.53;7.93;;;1.40;99.90;;;;;;5060535;28;20428;-75
2021/01/09 07:18:09;;;;;;;13.73;7.87;;;1.30;99.90;;;;;;5059068;28;20869;-76
2021/01/09 07:20:51;;;;;;;14.00;6.80;;;1.40;99.90;;;;;;5059953;28;20462;-75
2021/01/09 07:23:19;;;;;;;14.03;7.70;;;1.30;99.90;;;;;;5057409;28;20437;-76
2021/01/09 07:25:46;;;;;;;15.53;9.17;;;1.40;99.90;;;;;;5058733;28;20929;-76
2021/01/09 07:28:16;;;;;;;17.50;8.50;;;1.30;99.90;;;;;;5054873;28;20536;-75
2021/01/09 07:30:42;;;;;;;13.13;7.40;;;1.40;99.90;;;;;;5050296;28;20836;-77
2021/01/09 07:33:13;;;;;;;15.40;8.17;;;1.30;99.90;;;;;;5056709;28;20509;-75
2021/01/09 07:35:44;;;;;;;15.53;7.97;;;1.40;99.90;;;;;;5043050;28;20429;-75
2021/01/09 07:38:11;;;;;;;16.57;8.50;;;1.30;99.90;;;;;;5057359;28;20446;-76
2021/01/09 07:40:46;;;;;;;17.10;8.60;;;1.30;99.90;;;;;;5061757;28;20437;-77
2021/01/09 07:43:43;;;;;;;15.80;8.60;;;1.30;99.90;;;;;;5061671;28;20432;-77
2021/01/09 07:46:22;;;;;;;20.50;9.50;;;1.30;99.90;;;;;;5061161;28;20435;-77
2021/01/09 07:48:49;;;;;;;17.10;9.77;;;1.40;99.90;;;;;;5046101;28;20947;-77
2021/01/09 07:51:15;;;;;;;17.47;8.83;;;1.40;99.90;;;;;;5059786;28;20433;-77
2021/01/09 07:53:48;;;;;;;18.77;10.07;;;1.40;99.90;;;;;;5046725;28;20438;-79
2021/01/09 07:56:39;;;;;;;19.43;10.07;;;1.40;99.90;;;;;;5059702;28;20456;-76
2021/01/09 07:59:05;;;;;;;18.47;10.50;;;1.40;99.90;;;;;;5046736;28;20435;-78
2021/01/09 08:01:41;;;;;;;17.87;10.10;;;1.40;99.90;;;;;;5050263;28;20464;-80
2021/01/09 08:04:10;;;;;;;21.80;9.93;;;1.40;99.90;;;;;;5060761;28;20429;-78
2021/01/09 08:06:36;;;;;;;22.33;11.57;;;1.40;99.90;;;;;;5058054;28;20460;-78
2021/01/09 08:09:03;;;;;;;22.60;12.00;;;1.40;99.90;;;;;;5058302;28;20446;-79
2021/01/09 08:11:29;;;;;;;21.73;11.30;;;1.30;99.90;;;;;;5060374;28;21268;-79
2021/01/09 08:14:02;;;;;;;27.73;13.57;;;1.30;99.90;;;;;;5042727;28;20442;-77
2021/01/09 08:16:29;;;;;;;22.23;12.80;;;1.30;99.90;;;;;;5060602;28;20448;-77
2021/01/09 08:19:15;;;;;;;22.33;12.30;;;1.30;99.90;;;;;;5059249;28;20454;-77
2021/01/09 08:21:41;;;;;;;22.57;11.60;;;1.30;99.90;;;;;;5057919;28;20436;-77
2021/01/09 08:24:07;;;;;;;24.23;11.77;;;1.30;99.90;;;;;;5043124;28;20427;-75
2021/01/09 08:26:33;;;;;;;23.27;12.17;;;1.40;99.90;;;;;;5057745;28;20470;-75
2021/01/09 08:28:59;;;;;;;28.23;12.53;;;1.40;99.90;;;;;;5059880;28;20932;-75
2021/01/09 08:31:28;;;;;;;27.13;11.87;;;1.40;99.90;;;;;;5057852;28;20482;-75
2021/01/09 08:33:55;;;;;;;26.23;11.60;;;1.40;99.90;;;;;;5050578;28;20424;-76
2021/01/09 08:36:21;;;;;;;21.63;11.20;;;1.40;99.90;;;;;;5046042;28;23122;-76
2021/01/09 08:38:49;;;;;;;26.40;10.50;;;1.40;99.90;;;;;;5057654;28;20431;-76
2021/01/09 08:41:15;;;;;;;22.20;12.13;;;1.40;99.90;;;;;;5057833;28;20439;-76
2021/01/09 08:43:41;;;;;;;26.97;10.97;;;1.40;99.90;;;;;;5054491;28;20437;-85
2021/01/09 08:46:12;;;;;;;23.77;10.13;;;1.40;99.90;;;;;;5063822;28;20269;-85
2021/01/09 08:48:38;;;;;;;24.07;10.80;;;1.40;99.90;;;;;;5060032;28;20196;-85
2021/01/09 08:51:14;;;;;;;19.83;10.47;;;1.40;99.90;;;;;;5047266;28;20439;-84
2021/01/09 08:54:01;;;;;;;22.40;10.53;;;1.40;99.90;;;;;;5061583;28;20427;-84
2021/01/09 08:56:28;;;;;;;24.03;10.90;;;1.40;99.90;;;;;;5062578;28;20441;-84
2021/01/09 08:58:54;;;;;;;18.93;9.93;;;1.40;99.90;;;;;;5052344;28;20444;-83
2021/01/09 09:01:41;;;;;;;21.43;10.97;;;1.40;99.90;;;;;;5063399;28;20910;-84
2021/01/09 09:04:08;;;;;;;19.37;9.83;;;1.40;99.90;;;;;;5041189;28;20494;-83
2021/01/09 09:06:42;;;;;;;17.40;10.03;;;1.40;99.90;;;;;;5038912;28;20437;-81
2021/01/09 09:09:08;;;;;;;21.60;10.03;;;1.40;99.90;;;;;;5059073;28;20530;-83
2021/01/09 09:11:35;;;;;;;18.20;9.63;;;1.40;99.90;;;;;;5061841;28;20450;-83
2021/01/09 09:14:04;;;;;;;21.37;10.33;;;1.40;99.90;;;;;;5058079;28;20432;-83
2021/01/09 09:16:31;;;;;;;22.50;9.83;;;1.40;99.90;;;;;;5062290;28;20435;-84
2021/01/09 09:18:57;;;;;;;21.10;11.60;;;1.40;99.90;;;;;;5065420;28;20440;-83
2021/01/09 09:21:26;;;;;;;22.27;11.30;;;1.50;99.90;;;;;;5065685;28;20430;-83
2021/01/09 09:23:53;;;;;;;21.73;10.13;;;1.40;99.90;;;;;;5063367;28;20512;-82
2021/01/09 09:26:19;;;;;;;20.83;10.27;;;1.40;99.90;;;;;;5065108;28;20758;-82
2021/01/09 09:28:47;;;;;;;23.40;11.20;;;1.50;99.90;;;;;;5044705;28;20463;-81
2021/01/09 09:31:40;;;;;;;15.80;9.07;;;1.50;99.90;;;;;;5056986;28;20245;-81
2021/01/09 09:34:11;;;;;;;19.17;8.30;;;1.50;99.90;;;;;;5061489;28;20486;-81
2021/01/09 09:36:57;;;;;;;17.57;9.40;;;1.60;99.90;;;;;;5065330;28;20429;-82
2021/01/09 09:39:27;;;;;;;21.17;9.50;;;1.60;99.90;;;;;;5067121;28;20486;-81
2021/01/09 09:41:58;;;;;;;19.83;9.73;;;1.60;99.90;;;;;;5057869;28;20439;-81
2021/01/09 09:44:39;;;;;;;14.30;8.80;;;1.60;99.90;;;;;;5059636;28;20469;-81
2021/01/09 09:47:08;;;;;;;15.97;8.30;;;1.60;99.90;;;;;;5059419;28;20461;-80
2021/01/09 09:49:35;;;;;;;16.90;9.00;;;1.60;99.90;;;;;;5062458;28;20751;-82
2021/01/09 09:52:13;;;;;;;16.63;8.20;;;1.60;99.90;;;;;;5045203;28;20435;-82
2021/01/09 09:54:39;;;;;;;17.17;8.40;;;1.60;99.90;;;;;;5062694;28;20449;-79
2021/01/09 09:57:05;;;;;;;13.97;7.63;;;1.60;99.90;;;;;;5045015;28;20818;-77
2021/01/09 09:59:31;;;;;;;14.50;8.03;;;1.60;99.90;;;;;;5049940;28;20287;-78
2021/01/09 10:01:58;;;;;;;15.47;8.63;;;1.70;99.90;;;;;;5061532;28;20179;-78
2021/01/09 10:04:24;;;;;;;14.37;8.03;;;1.60;99.90;;;;;;5044942;28;20763;-78
2021/01/09 10:06:51;;;;;;;16.50;8.20;;;1.60;99.90;;;;;;5043373;28;20440;-78
2021/01/09 10:09:21;;;;;;;14.33;7.77;;;1.60;99.90;;;;;;5061876;28;20294;-79
2021/01/09 10:11:50;;;;;;;16.40;8.10;;;1.60;99.90;;;;;;5059991;28;20453;-78
2021/01/09 10:14:16;;;;;;;22.10;9.10;;;1.70;99.90;;;;;;5060352;28;20962;-80
2021/01/09 10:16:42;;;;;;;13.07;7.60;;;1.70;99.90;;;;;;5057823;28;20521;-80
2021/01/09 10:19:13;;;;;;;17.13;8.60;;;1.80;99.90;;;;;;5061195;28;20768;-81
2021/01/09 10:21:39;;;;;;;14.30;7.10;;;1.80;99.90;;;;;;5061160;28;20751;-82
2021/01/09 10:24:05;;;;;;;16.10;8.27;;;1.80;99.90;;;;;;5055014;28;20480;-80
2021/01/09 10:26:32;;;;;;;14.87;7.13;;;1.80;99.90;;;;;;5055548;28;20426;-80
2021/01/09 10:29:00;;;;;;;16.03;8.40;;;1.70;99.90;;;;;;5058965;28;21089;-80
2021/01/09 10:31:33;;;;;;;12.70;7.23;;;1.70;99.90;;;;;;5061463;28;20431;-80
2021/01/09 10:34:00;;;;;;;15.03;7.73;;;1.70;99.90;;;;;;5060740;28;20421;-80
2021/01/09 10:36:31;;;;;;;13.57;7.70;;;1.80;99.90;;;;;;5058903;28;20493;-80
2021/01/09 10:38:58;;;;;;;13.00;7.10;;;1.80;99.90;;;;;;5051568;28;20440;-80
2021/01/09 10:41:24;;;;;;;13.40;6.93;;;1.80;99.90;;;;;;5059567;28;20444;-80
2021/01/09 10:43:52;;;;;;;18.63;8.20;;;1.80;99.90;;;;;;5060769;28;20443;-80
2021/01/09 10:46:25;;;;;;;16.40;8.17;;;1.90;99.90;;;;;;5058620;28;20449;-80
2021/01/09 10:48:51;;;;;;;14.60;8.10;;;1.90;99.90;;;;;;5056280;28;20476;-80
2021/01/09 10:51:19;;;;;;;20.03;7.90;;;1.90;99.90;;;;;;5058595;28;20759;-81
2021/01/09 10:53:45;;;;;;;14.27;7.90;;;1.90;99.90;;;;;;5057949;28;20428;-81
2021/01/09 10:56:11;;;;;;;17.93;8.60;;;1.80;99.90;;;;;;5060146;28;20480;-80
2021/01/09 10:58:37;;;;;;;15.07;8.50;;;1.80;99.90;;;;;;5044239;28;21059;-80
2021/01/09 11:01:05;;;;;;;17.10;7.80;;;1.90;99.90;;;;;;5059229;28;20431;-80
2021/01/09 11:03:31;;;;;;;15.50;9.10;;;1.90;99.90;;;;;;5055681;28;20496;-80
2021/01/09 11:05:57;;;;;;;17.17;9.10;;;1.90;99.90;;;;;;5052030;28;20433;-80
2021/01/09 11:08:23;;;;;;;12.57;7.53;;;1.90;99.90;;;;;;5058438;28;21440;-80
2021/01/09 11:10:49;;;;;;;13.47;7.20;;;1.90;99.90;;;;;;5057923;28;23041;-80
2021/01/09 11:13:15;;;;;;;15.27;7.90;;;1.90;99.90;;;;;;5060117;28;20439;-80
2021/01/09 11:15:53;;;;;;;14.80;8.00;;;1.90;99.90;;;;;;5060579;28;20267;-81
2021/01/09 11:18:19;;;;;;;19.60;7.73;;;2.00;99.90;;;;;;5040292;28;20656;-81
2021/01/09 11:20:50;;;;;;;15.40;7.80;;;2.10;99.90;;;;;;5044209;28;20450;-81
2021/01/09 11:23:16;;;;;;;14.90;7.23;;;2.00;99.90;;;;;;5059285;28;20172;-83
2021/01/09 11:25:46;;;;;;;15.73;8.00;;;1.90;99.90;;;;;;5061526;28;20523;-82
2021/01/09 11:28:12;;;;;;;15.47;7.60;;;1.90;99.90;;;;;;5057123;28;20466;-80
2021/01/09 11:30:39;;;;;;;15.53;7.73;;;1.90;99.90;;;;;;5043038;28;20433;-80
2021/01/09 11:33:05;;;;;;;16.57;8.60;;;1.90;99.90;;;;;;5059586;28;20514;-80
2021/01/09 11:35:32;;;;;;;22.97;8.90;;;1.80;99.90;;;;;;5060466;28;20438;-80
2021/01/09 11:37:58;;;;;;;12.90;6.83;;;1.80;99.90;;;;;;5058513;28;20946;-80
2021/01/09 11:40:25;;;;;;;13.77;7.27;;;1.80;99.90;;;;;;5045695;28;20474;-80
2021/01/09 11:42:51;;;;;;;16.37;8.17;;;1.80;99.90;;;;;;5043774;28;20529;-80
2021/01/09 11:45:17;;;;;;;15.80;8.83;;;1.80;99.90;;;;;;5055514;28;20522;-80
2021/01/09 11:47:43;;;;;;;14.90;8.60;;;1.90;99.90;;;;;;5055926;28;20476;-80
2021/01/09 11:50:10;;;;;;;14.97;7.73;;;1.90;99.90;;;;;;5039779;28;20470;-80
2021/01/09 11:52:36;;;;;;;17.50;8.50;;;1.90;99.90;;;;;;5057319;28;20430;-80
2021/01/09 11:55:02;;;;;;;18.10;8.53;;;1.90;99.90;;;;;;5057276;28;20530;-80
2021/01/09 11:57:28;;;;;;;17.63;8.73;;;1.90;99.90;;;;;;5055831;28;20184;-80
2021/01/09 11:59:54;;;;;;;16.57;8.70;;;1.90;99.90;;;;;;5055161;28;20448;-81
2021/01/09 12:02:20;;;;;;;16.37;9.57;;;2.00;99.90;;;;;;5041348;28;20449;-80
2021/01/09 12:04:46;;;;;;;13.60;8.60;;;1.90;99.90;;;;;;5058522;28;20659;-80
2021/01/09 12:07:12;;;;;;;15.30;7.73;;;1.90;99.90;;;;;;5059076;28;20216;-79
2021/01/09 12:09:38;;;;;;;18.73;9.40;;;1.90;99.90;;;;;;5060420;28;20177;-80
2021/01/09 12:12:05;;;;;;;18.20;8.37;;;1.90;99.90;;;;;;5059218;28;20186;-79
2021/01/09 12:14:30;;;;;;;16.00;9.27;;;1.90;99.90;;;;;;5056491;28;20438;-80
2021/01/09 12:16:59;;;;;;;15.10;7.97;;;1.80;99.90;;;;;;5058272;28;20437;-80
2021/01/09 12:19:25;;;;;;;18.33;8.07;;;1.80;99.90;;;;;;5062415;28;20176;-80
2021/01/09 12:21:52;;;;;;;17.60;7.90;;;1.80;99.90;;;;;;5060822;28;20429;-80
2021/01/09 12:24:18;;;;;;;14.23;7.70;;;1.80;99.90;;;;;;5058385;28;20437;-80
2021/01/09 12:26:44;;;;;;;16.87;8.60;;;1.70;99.90;;;;;;5056431;28;20774;-81
2021/01/09 12:29:10;;;;;;;11.30;7.10;;;1.70;99.90;;;;;;5062139;28;20181;-80
2021/01/09 12:31:36;;;;;;;16.50;8.30;;;1.70;99.90;;;;;;5059299;28;20809;-80
2021/01/09 12:34:03;;;;;;;16.67;8.50;;;1.70;99.90;;;;;;5058140;28;20183;-80
2021/01/09 12:36:29;;;;;;;13.97;7.27;;;1.70;99.90;;;;;;5058026;28;20448;-81
2021/01/09 12:38:55;;;;;;;17.23;8.43;;;1.70;99.90;;;;;;5039253;28;20430;-81
2021/01/09 12:41:31;;;;;;;13.07;7.00;;;1.70;99.90;;;;;;5054702;28;20510;-81
2021/01/09 12:43:57;;;;;;;9.40;6.90;;;1.70;99.90;;;;;;5054611;28;20495;-81
2021/01/09 12:46:23;;;;;;;15.10;7.83;;;1.70;99.90;;;;;;5054269;28;20447;-79
2021/01/09 12:48:49;;;;;;;15.20;6.93;;;1.70;99.90;;;;;;5055509;28;20498;-80
2021/01/09 12:51:20;;;;;;;10.93;6.83;;;1.70;99.90;;;;;;5054022;28;20261;-82